Time;durP1;ratioP1;P1;durP2;ratioP2;P2;SDS_P1;SDS_P2;PMS_P1;PMS_P2;Temp;Humidity;BMP_temperature;BMP_pressure;BME280_temperature;BME280_humidity;BME280_pressure;Samples;Min_cycle;Max_cycle;Signal;HPM_P1;HPM_P2
2022/01/26 00:00:55;;;;;;;18.37;13.57;;;2.50;99.90;;;;;;5121036;27;20238;-54
2022/01/26 00:06:16;;;;;;;16.60;12.67;;;2.40;99.90;;;;;;5133852;27;20254;-54
2022/01/26 00:08:45;;;;;;;18.37;12.60;;;2.30;99.90;;;;;;5133943;27;20210;-53
2022/01/26 00:11:13;;;;;;;18.03;13.30;;;2.30;99.90;;;;;;5141769;27;20227;-53
2022/01/26 00:13:41;;;;;;;18.53;13.13;;;2.30;99.90;;;;;;5133800;27;20262;-53
2022/01/26 00:16:18;;;;;;;17.53;12.57;;;2.30;99.90;;;;;;5133820;27;20787;-54
2022/01/26 00:18:46;;;;;;;18.87;13.70;;;2.20;99.90;;;;;;5133899;27;20193;-54
2022/01/26 00:21:25;;;;;;;18.57;12.70;;;2.20;99.90;;;;;;5134159;27;20275;-54
2022/01/26 00:24:10;;;;;;;18.03;12.80;;;2.20;99.90;;;;;;5133612;27;20196;-54
2022/01/26 00:27:01;;;;;;;19.67;13.27;;;2.30;99.90;;;;;;5134004;27;20207;-55
2022/01/26 00:29:30;;;;;;;18.97;12.63;;;2.40;99.90;;;;;;5122560;27;20219;-54
2022/01/26 00:33:06;;;;;;;21.17;14.80;;;2.40;99.90;;;;;;5126237;27;20649;-54
2022/01/26 00:40:32;;;;;;;21.03;14.63;;;2.40;99.90;;;;;;5113826;27;20306;-54
2022/01/26 00:43:07;;;;;;;20.77;14.70;;;2.30;99.90;;;;;;5111692;28;20261;-54
2022/01/26 00:45:37;;;;;;;17.80;13.27;;;2.40;99.90;;;;;;5112832;28;20251;-53
2022/01/26 00:48:08;;;;;;;18.53;13.73;;;2.40;99.90;;;;;;5112627;28;20217;-53
2022/01/26 00:50:38;;;;;;;20.27;14.17;;;2.40;99.90;;;;;;5112727;28;20674;-54
2022/01/26 00:53:09;;;;;;;19.40;14.00;;;2.40;99.90;;;;;;5130533;27;20226;-55
2022/01/26 00:55:37;;;;;;;20.83;14.93;;;2.40;99.90;;;;;;5133261;27;20266;-54
2022/01/26 00:58:05;;;;;;;21.33;15.03;;;2.40;99.90;;;;;;5133198;27;20631;-54
2022/01/26 01:00:33;;;;;;;20.60;14.87;;;2.40;99.90;;;;;;5115262;27;20692;-54
2022/01/26 01:03:02;;;;;;;21.17;14.77;;;2.50;99.90;;;;;;5111910;28;20251;-53
2022/01/26 01:05:32;;;;;;;22.73;16.20;;;2.40;99.90;;;;;;5121197;27;20613;-53
2022/01/26 01:08:04;;;;;;;23.00;15.77;;;2.40;99.90;;;;;;5132503;27;20257;-54
2022/01/26 01:10:34;;;;;;;23.77;16.07;;;2.50;99.90;;;;;;5128321;27;20203;-55
2022/01/26 01:13:02;;;;;;;22.13;15.50;;;2.50;99.90;;;;;;5133113;27;20275;-55
2022/01/26 01:15:31;;;;;;;26.20;16.87;;;2.60;99.90;;;;;;5132540;27;20304;-55
2022/01/26 01:18:09;;;;;;;24.60;16.93;;;2.60;99.90;;;;;;5132894;27;20207;-55
2022/01/26 01:21:04;;;;;;;24.57;17.13;;;2.50;99.90;;;;;;5132611;27;20253;-54
2022/01/26 01:26:40;;;;;;;21.83;16.13;;;2.40;99.90;;;;;;5132564;27;20256;-55
2022/01/26 01:29:18;;;;;;;25.53;16.90;;;2.40;99.90;;;;;;5120833;27;20202;-55
2022/01/26 01:31:50;;;;;;;26.80;17.37;;;2.40;99.90;;;;;;5110590;28;20259;-55
2022/01/26 01:34:21;;;;;;;27.33;18.53;;;2.40;99.90;;;;;;5111580;28;20315;-55
2022/01/26 01:36:51;;;;;;;26.00;17.57;;;2.40;99.90;;;;;;5131371;27;20658;-55
2022/01/26 01:39:20;;;;;;;25.27;17.27;;;2.40;99.90;;;;;;5132204;27;20673;-56
2022/01/26 01:41:51;;;;;;;27.37;17.93;;;2.40;99.90;;;;;;5131958;27;20261;-55
2022/01/26 01:44:20;;;;;;;26.37;17.97;;;2.30;99.90;;;;;;5132535;27;20183;-55
2022/01/26 01:46:49;;;;;;;27.40;18.30;;;2.30;99.90;;;;;;5132334;27;20202;-56
2022/01/26 01:49:18;;;;;;;30.63;18.77;;;2.30;99.90;;;;;;5132579;27;20199;-54
2022/01/26 01:51:51;;;;;;;28.13;18.30;;;2.30;99.90;;;;;;5110917;28;20300;-55
2022/01/26 01:54:19;;;;;;;28.70;19.10;;;2.30;99.90;;;;;;5134126;27;20254;-54
2022/01/26 01:56:54;;;;;;;29.43;18.53;;;2.30;99.90;;;;;;5132046;27;20255;-54
2022/01/26 01:59:23;;;;;;;28.13;18.43;;;2.40;99.90;;;;;;5124652;27;20223;-54
2022/01/26 02:01:51;;;;;;;27.20;17.73;;;2.40;99.90;;;;;;5111051;28;20577;-55
2022/01/26 02:04:20;;;;;;;28.10;18.57;;;2.40;99.90;;;;;;5125015;27;20207;-53
2022/01/26 02:06:48;;;;;;;28.53;18.60;;;2.50;99.90;;;;;;5132106;27;20210;-54
2022/01/26 02:09:16;;;;;;;28.43;18.20;;;2.50;99.90;;;;;;5132092;28;20192;-54
2022/01/26 02:11:47;;;;;;;27.30;17.47;;;2.40;99.90;;;;;;5131072;28;20250;-54
2022/01/26 02:14:23;;;;;;;28.47;19.33;;;2.40;99.90;;;;;;5131364;28;20222;-55
2022/01/26 02:16:59;;;;;;;27.07;17.83;;;2.50;99.90;;;;;;5131757;28;20747;-55
2022/01/26 02:50:36;;;;;;;26.73;17.83;;;2.30;99.90;;;;;;5122786;28;20516;-54
2022/01/26 02:53:24;;;;;;;30.23;18.77;;;2.30;99.90;;;;;;5130961;28;20247;-54
2022/01/26 02:55:58;;;;;;;28.63;18.53;;;2.30;99.90;;;;;;5143520;27;20209;-55
2022/01/26 02:58:48;;;;;;;29.53;18.90;;;2.30;99.90;;;;;;5152686;27;20258;-55
2022/01/26 03:04:18;;;;;;;31.97;20.43;;;2.20;99.90;;;;;;5094221;28;20583;-54
2022/01/26 03:06:53;;;;;;;31.13;19.67;;;2.20;99.90;;;;;;5131132;28;20226;-55
2022/01/26 03:09:26;;;;;;;29.43;19.77;;;2.30;99.90;;;;;;5132622;27;20242;-54
2022/01/26 03:11:57;;;;;;;27.97;18.67;;;2.30;99.90;;;;;;5135046;27;20634;-54
2022/01/26 03:14:34;;;;;;;27.17;17.77;;;2.30;99.90;;;;;;5130509;27;20352;-54
2022/01/26 03:17:11;;;;;;;29.67;19.30;;;2.30;99.90;;;;;;5135146;27;20202;-54
2022/01/26 03:19:42;;;;;;;29.17;19.17;;;2.30;99.90;;;;;;5117753;27;20203;-55
2022/01/26 03:28:19;;;;;;;26.80;18.50;;;2.40;99.90;;;;;;5074547;28;20236;-54
2022/01/26 03:33:51;;;;;;;32.17;19.10;;;2.40;99.90;;;;;;5113267;28;20203;-54
2022/01/26 03:36:20;;;;;;;27.93;17.43;;;2.50;99.90;;;;;;5128120;27;20237;-55
2022/01/26 03:38:56;;;;;;;27.43;18.03;;;2.40;99.90;;;;;;5115131;27;20262;-55
2022/01/26 03:41:34;;;;;;;26.10;17.37;;;2.30;99.90;;;;;;5129901;27;20282;-54
2022/01/26 03:44:04;;;;;;;26.43;17.27;;;2.40;99.90;;;;;;5155302;27;20248;-54
2022/01/26 03:46:33;;;;;;;28.40;18.20;;;2.30;99.90;;;;;;5129567;27;20238;-54
2022/01/26 03:49:01;;;;;;;27.77;18.53;;;2.40;99.90;;;;;;5113765;28;20204;-54
2022/01/26 03:51:30;;;;;;;30.03;19.13;;;2.30;99.90;;;;;;5113561;28;20230;-54
2022/01/26 03:53:58;;;;;;;26.17;17.37;;;2.30;99.90;;;;;;5144887;27;20719;-54
2022/01/26 03:56:26;;;;;;;26.87;17.63;;;2.40;99.90;;;;;;5155224;27;20669;-54
2022/01/26 03:58:54;;;;;;;27.07;18.07;;;2.40;99.90;;;;;;5151212;27;20735;-55
2022/01/26 04:01:24;;;;;;;24.90;16.40;;;2.30;99.90;;;;;;5134190;27;20244;-54
2022/01/26 04:03:53;;;;;;;26.07;16.00;;;2.20;99.90;;;;;;5134289;27;20274;-55
2022/01/26 04:06:21;;;;;;;25.77;16.37;;;2.20;99.90;;;;;;5134033;27;20213;-54
2022/01/26 04:08:49;;;;;;;24.40;16.40;;;2.30;99.90;;;;;;5133856;27;20217;-55
2022/01/26 04:14:00;;;;;;;21.80;15.70;;;2.30;99.90;;;;;;5151541;27;20258;-53
2022/01/26 04:16:29;;;;;;;23.60;16.43;;;2.30;99.90;;;;;;5152348;27;20208;-53
2022/01/26 04:18:58;;;;;;;28.30;16.83;;;2.30;99.90;;;;;;5133946;27;20242;-55
2022/01/26 04:21:35;;;;;;;24.40;16.43;;;2.30;99.90;;;;;;5133623;27;20226;-54
2022/01/26 04:24:10;;;;;;;25.17;17.63;;;2.30;99.90;;;;;;5133363;27;20243;-54
2022/01/26 04:26:45;;;;;;;22.07;15.47;;;2.30;99.90;;;;;;5133940;27;20203;-55
2022/01/26 04:29:19;;;;;;;22.73;16.13;;;2.40;99.90;;;;;;5130791;27;20759;-55
2022/01/26 04:31:48;;;;;;;23.67;16.03;;;2.30;99.90;;;;;;5133591;27;20283;-53
2022/01/26 04:34:16;;;;;;;24.63;17.13;;;2.20;99.90;;;;;;5133311;27;20690;-55
2022/01/26 04:36:50;;;;;;;23.73;16.27;;;2.20;99.90;;;;;;5133804;27;20661;-54
2022/01/26 04:39:23;;;;;;;21.70;15.40;;;2.30;99.90;;;;;;5154546;27;20203;-54
2022/01/26 04:41:54;;;;;;;19.93;14.40;;;2.30;99.90;;;;;;5144034;27;20255;-54
2022/01/26 04:44:25;;;;;;;20.53;14.53;;;2.30;99.90;;;;;;5112397;28;20620;-55
2022/01/26 04:46:55;;;;;;;23.87;15.43;;;2.30;99.90;;;;;;5121252;27;20256;-55
2022/01/26 04:49:24;;;;;;;21.97;14.43;;;2.30;99.90;;;;;;5133071;27;20623;-54
2022/01/26 04:51:52;;;;;;;20.57;14.80;;;2.20;99.90;;;;;;5132754;27;20258;-55
2022/01/26 04:54:20;;;;;;;21.17;14.60;;;2.10;99.90;;;;;;5152550;27;20194;-54
2022/01/26 04:56:48;;;;;;;19.47;13.60;;;2.10;99.90;;;;;;5153926;27;20206;-55
2022/01/26 04:59:16;;;;;;;21.97;15.33;;;2.10;99.90;;;;;;5140820;27;20264;-55
2022/01/26 05:01:44;;;;;;;21.10;13.83;;;2.20;99.90;;;;;;5112049;28;20783;-54
2022/01/26 05:04:14;;;;;;;21.33;14.50;;;2.20;99.90;;;;;;5126947;27;20206;-55
2022/01/26 05:06:42;;;;;;;22.07;13.77;;;2.20;99.90;;;;;;5132871;27;20731;-54
2022/01/26 05:09:10;;;;;;;17.40;13.27;;;2.20;99.90;;;;;;5132700;27;20242;-55
2022/01/26 05:11:41;;;;;;;19.43;13.90;;;2.20;99.90;;;;;;5153305;27;20272;-54
2022/01/26 05:14:09;;;;;;;20.57;14.77;;;2.20;99.90;;;;;;5138881;27;20253;-55
2022/01/26 05:16:37;;;;;;;22.20;15.03;;;2.30;99.90;;;;;;5132603;27;20255;-54
2022/01/26 05:19:06;;;;;;;20.90;14.23;;;2.30;99.90;;;;;;5133157;27;20230;-55
2022/01/26 05:21:36;;;;;;;22.43;15.10;;;2.40;99.90;;;;;;5132493;27;20649;-55
2022/01/26 05:24:04;;;;;;;23.03;14.90;;;2.30;99.90;;;;;;5132539;27;20234;-54
2022/01/26 05:26:32;;;;;;;20.73;14.57;;;2.30;99.90;;;;;;5132465;27;20210;-54
2022/01/26 05:29:01;;;;;;;21.20;15.20;;;2.20;99.90;;;;;;5131164;27;20203;-54
2022/01/26 05:31:29;;;;;;;20.13;13.50;;;2.10;99.90;;;;;;5132126;27;20257;-55
2022/01/26 05:33:57;;;;;;;21.33;14.50;;;2.10;99.90;;;;;;5141794;27;20312;-54
2022/01/26 05:36:26;;;;;;;22.00;15.23;;;2.10;99.90;;;;;;5122541;27;20268;-54
2022/01/26 05:38:55;;;;;;;20.10;14.47;;;2.10;99.90;;;;;;5122755;27;20207;-55
2022/01/26 05:41:23;;;;;;;20.67;14.70;;;2.10;99.90;;;;;;5132238;27;20251;-55
2022/01/26 05:43:51;;;;;;;28.60;19.43;;;2.10;99.90;;;;;;5132175;27;20272;-54
2022/01/26 05:46:26;;;;;;;21.20;15.67;;;2.10;99.90;;;;;;5132490;27;20331;-55
2022/01/26 05:48:55;;;;;;;21.53;14.37;;;2.10;99.90;;;;;;5132276;27;20198;-55
2022/01/26 05:51:24;;;;;;;19.93;13.90;;;2.00;99.90;;;;;;5131883;27;20226;-55
2022/01/26 05:53:52;;;;;;;42.00;28.90;;;1.90;99.90;;;;;;5147021;27;20236;-55
2022/01/26 05:56:21;;;;;;;22.37;15.93;;;1.90;99.90;;;;;;5152353;27;20290;-55
2022/01/26 05:58:49;;;;;;;21.80;14.30;;;1.90;99.90;;;;;;5149955;27;20199;-54
2022/01/26 06:01:19;;;;;;;20.30;14.77;;;1.90;99.90;;;;;;5111304;28;20265;-53
2022/01/26 06:03:47;;;;;;;21.00;15.07;;;1.90;99.90;;;;;;5112190;28;20260;-54
2022/01/26 06:06:17;;;;;;;19.67;14.73;;;1.80;99.90;;;;;;5126597;27;20747;-55
2022/01/26 06:08:45;;;;;;;20.23;13.93;;;1.80;99.90;;;;;;5131550;27;20352;-55
2022/01/26 06:11:13;;;;;;;23.33;16.63;;;1.80;99.90;;;;;;5131808;28;20253;-55
2022/01/26 06:13:42;;;;;;;22.27;14.77;;;1.90;99.90;;;;;;5151822;27;20222;-54
2022/01/26 06:16:10;;;;;;;20.40;14.73;;;1.90;99.90;;;;;;5152758;27;20260;-54
2022/01/26 06:18:38;;;;;;;19.23;13.87;;;2.00;99.90;;;;;;5152759;27;20209;-55
2022/01/26 06:21:08;;;;;;;18.63;13.83;;;2.00;99.90;;;;;;5152666;27;20229;-54
2022/01/26 06:23:36;;;;;;;19.77;14.13;;;1.90;99.90;;;;;;5123038;27;20744;-55
2022/01/26 06:26:04;;;;;;;22.17;15.13;;;1.80;99.90;;;;;;5111642;28;20756;-55
2022/01/26 06:28:32;;;;;;;23.07;15.60;;;1.90;99.90;;;;;;5127409;28;20235;-54
2022/01/26 06:31:09;;;;;;;19.43;14.53;;;1.80;99.90;;;;;;5134378;27;20279;-54
2022/01/26 06:33:40;;;;;;;24.93;16.50;;;1.80;99.90;;;;;;5110948;28;20571;-54
2022/01/26 06:36:12;;;;;;;23.03;15.77;;;1.80;99.90;;;;;;5124064;28;20223;-54
2022/01/26 06:38:41;;;;;;;23.83;15.97;;;1.80;99.90;;;;;;5132215;28;20666;-55
2022/01/26 06:41:10;;;;;;;24.30;16.17;;;1.90;99.90;;;;;;5131174;28;20229;-54
2022/01/26 06:43:46;;;;;;;23.97;17.50;;;1.90;99.90;;;;;;5132126;28;20202;-55
2022/01/26 06:46:26;;;;;;;22.77;15.97;;;1.90;99.90;;;;;;5128368;28;20211;-54
2022/01/26 06:49:28;;;;;;;24.83;17.13;;;2.00;99.90;;;;;;5111520;28;20257;-54
2022/01/26 06:51:54;;;;;;;27.87;18.53;;;2.00;99.90;;;;;;5114807;28;20223;-54
2022/01/26 06:54:23;;;;;;;28.70;19.17;;;2.00;99.90;;;;;;5133565;27;20238;-54
2022/01/26 06:56:51;;;;;;;32.03;20.30;;;1.90;99.90;;;;;;5135487;27;20265;-54
2022/01/26 06:59:21;;;;;;;25.23;18.27;;;1.90;99.90;;;;;;5127943;27;20214;-55
2022/01/26 07:01:51;;;;;;;26.23;18.73;;;1.90;99.90;;;;;;5114990;28;20270;-54
2022/01/26 07:04:19;;;;;;;25.50;18.20;;;1.80;99.90;;;;;;5114687;28;20247;-54
2022/01/26 07:06:48;;;;;;;27.50;18.43;;;1.80;99.90;;;;;;5134092;27;20232;-54
2022/01/26 07:09:17;;;;;;;27.53;18.13;;;1.80;99.90;;;;;;5135654;27;20204;-54
2022/01/26 07:11:46;;;;;;;27.27;17.97;;;1.80;99.90;;;;;;5151861;27;20265;-54
2022/01/26 07:14:24;;;;;;;30.00;20.00;;;1.80;99.90;;;;;;5134834;27;20209;-55
2022/01/26 07:19:53;;;;;;;28.30;18.90;;;1.80;99.90;;;;;;5135407;27;20209;-55
2022/01/26 07:22:21;;;;;;;27.33;18.63;;;1.80;99.90;;;;;;5134455;27;20223;-54
2022/01/26 07:24:49;;;;;;;29.00;19.73;;;1.90;99.90;;;;;;5135218;27;20207;-54
2022/01/26 07:27:17;;;;;;;28.70;19.73;;;1.90;99.90;;;;;;5145362;27;20210;-54
2022/01/26 07:29:48;;;;;;;28.20;19.27;;;1.80;99.90;;;;;;5134482;27;20260;-54
2022/01/26 07:32:18;;;;;;;29.43;19.77;;;1.80;99.90;;;;;;5134406;27;20220;-54
2022/01/26 07:34:46;;;;;;;28.00;19.50;;;1.90;99.90;;;;;;5134420;27;20743;-55
2022/01/26 07:37:16;;;;;;;30.87;20.00;;;1.90;99.90;;;;;;5135044;27;20279;-55
2022/01/26 07:39:48;;;;;;;28.70;19.57;;;1.90;99.90;;;;;;5134265;27;20756;-54
2022/01/26 07:42:16;;;;;;;31.07;20.43;;;2.00;99.90;;;;;;5134499;27;20242;-54
2022/01/26 07:44:45;;;;;;;24.77;17.13;;;2.00;99.90;;;;;;5134176;27;20207;-55
2022/01/26 07:47:13;;;;;;;29.77;18.57;;;1.90;99.90;;;;;;5134576;27;20667;-54
2022/01/26 07:49:42;;;;;;;25.23;17.17;;;1.90;99.90;;;;;;5135506;27;20234;-58
2022/01/26 07:52:13;;;;;;;25.27;16.90;;;1.90;99.90;;;;;;5135155;27;20258;-54
2022/01/26 07:54:41;;;;;;;29.57;18.83;;;1.90;99.90;;;;;;5135107;27;20230;-55
2022/01/26 07:57:09;;;;;;;27.10;18.17;;;1.90;99.90;;;;;;5155013;27;20249;-53
2022/01/26 07:59:37;;;;;;;27.50;17.97;;;1.90;99.90;;;;;;5145935;27;20621;-55
2022/01/26 08:02:05;;;;;;;30.80;20.07;;;1.80;99.90;;;;;;5133383;27;20226;-55
2022/01/26 08:04:34;;;;;;;27.07;18.50;;;1.90;99.90;;;;;;5134446;27;20266;-54
2022/01/26 08:07:04;;;;;;;26.53;17.53;;;1.90;99.90;;;;;;5134173;27;20210;-55
2022/01/26 08:09:32;;;;;;;27.70;18.00;;;2.00;99.90;;;;;;5136865;27;20231;-56
2022/01/26 08:12:01;;;;;;;31.83;21.37;;;2.00;99.90;;;;;;5134187;27;20288;-55
2022/01/26 08:14:29;;;;;;;27.87;18.47;;;1.90;99.90;;;;;;5125705;27;20209;-55
2022/01/26 08:16:57;;;;;;;27.57;17.63;;;1.90;99.90;;;;;;5133869;27;20262;-55
2022/01/26 08:19:25;;;;;;;28.80;18.80;;;1.90;99.90;;;;;;5133705;27;20628;-55
2022/01/26 08:21:58;;;;;;;31.60;20.23;;;2.00;99.90;;;;;;5135519;27;20706;-55
2022/01/26 08:24:28;;;;;;;34.67;21.03;;;2.10;99.90;;;;;;5143253;27;20679;-55
2022/01/26 08:26:59;;;;;;;38.33;24.40;;;2.10;99.90;;;;;;5133015;27;20237;-55
2022/01/26 08:29:31;;;;;;;39.13;24.43;;;2.10;99.90;;;;;;5133671;27;20262;-55
2022/01/26 08:32:00;;;;;;;36.67;21.80;;;2.00;99.90;;;;;;5132837;27;20248;-54
2022/01/26 08:34:28;;;;;;;40.07;23.20;;;2.00;99.90;;;;;;5133672;27;20220;-54
2022/01/26 08:36:56;;;;;;;37.87;23.67;;;2.00;99.90;;;;;;5133385;27;20219;-54
2022/01/26 08:39:24;;;;;;;42.83;24.50;;;2.00;99.90;;;;;;5133078;27;20242;-54
2022/01/26 08:41:54;;;;;;;43.77;24.20;;;1.90;99.90;;;;;;5120942;27;20281;-55
2022/01/26 08:44:23;;;;;;;42.73;24.20;;;1.90;99.90;;;;;;5124669;27;20376;-54
2022/01/26 08:46:52;;;;;;;45.67;24.67;;;1.90;99.90;;;;;;5125539;27;20199;-54
2022/01/26 08:49:21;;;;;;;50.87;27.50;;;2.00;99.90;;;;;;5128356;27;20238;-54
2022/01/26 08:51:51;;;;;;;45.53;24.80;;;2.00;99.90;;;;;;5132756;27;20257;-54
2022/01/26 08:54:20;;;;;;;51.17;28.37;;;2.00;99.90;;;;;;5132876;27;20624;-54
2022/01/26 08:56:48;;;;;;;48.13;27.00;;;2.00;99.90;;;;;;5153506;27;20227;-54
2022/01/26 08:59:18;;;;;;;56.90;29.30;;;2.00;99.90;;;;;;5132243;27;20227;-55
2022/01/26 09:01:46;;;;;;;56.60;29.50;;;2.00;99.90;;;;;;5113387;27;20258;-54
2022/01/26 09:04:15;;;;;;;55.80;29.63;;;2.00;99.90;;;;;;5133289;27;20234;-54
2022/01/26 09:06:52;;;;;;;51.87;28.63;;;2.10;99.90;;;;;;5132586;27;20193;-54
2022/01/26 09:09:21;;;;;;;51.57;28.33;;;2.10;99.90;;;;;;5133096;27;20199;-54
2022/01/26 09:11:50;;;;;;;55.63;28.47;;;2.20;99.90;;;;;;5132002;27;20222;-53
2022/01/26 09:14:22;;;;;;;61.27;31.73;;;2.20;99.90;;;;;;5132228;27;20238;-54
2022/01/26 09:16:53;;;;;;;54.67;29.13;;;2.20;99.90;;;;;;5133135;27;20251;-53
2022/01/26 09:19:27;;;;;;;60.80;30.93;;;2.20;99.90;;;;;;5144523;27;20645;-54
2022/01/26 09:21:56;;;;;;;65.37;33.73;;;2.20;99.90;;;;;;5112534;28;20227;-54
2022/01/26 09:24:30;;;;;;;65.47;34.60;;;2.30;99.90;;;;;;5127614;27;20203;-54
2022/01/26 09:26:58;;;;;;;61.37;33.13;;;2.30;99.90;;;;;;5135556;27;20198;-54
2022/01/26 09:29:29;;;;;;;67.77;31.13;;;2.30;99.90;;;;;;5117056;27;20289;-55
2022/01/26 09:31:57;;;;;;;61.37;31.83;;;2.40;99.90;;;;;;5129847;27;20228;-55
2022/01/26 09:34:30;;;;;;;61.37;31.93;;;2.40;99.90;;;;;;5131995;27;20248;-55
2022/01/26 09:36:58;;;;;;;59.97;30.27;;;2.40;99.90;;;;;;5115601;27;20660;-54
2022/01/26 09:39:27;;;;;;;58.43;30.57;;;2.30;99.90;;;;;;5132383;27;20210;-55
2022/01/26 09:41:55;;;;;;;56.93;29.60;;;2.30;99.90;;;;;;5131463;27;20261;-56
2022/01/26 09:44:24;;;;;;;65.90;33.57;;;2.40;99.90;;;;;;5126260;27;20608;-55
2022/01/26 09:46:54;;;;;;;61.73;32.20;;;2.40;99.90;;;;;;5111237;27;20221;-54
2022/01/26 09:49:29;;;;;;;67.00;34.13;;;2.40;99.90;;;;;;5129617;27;20721;-55
2022/01/26 09:52:01;;;;;;;76.73;39.83;;;2.50;99.90;;;;;;5131826;27;20219;-54
2022/01/26 09:54:31;;;;;;;73.03;38.33;;;2.50;99.90;;;;;;5131954;27;20198;-55
2022/01/26 09:57:19;;;;;;;66.80;34.23;;;2.50;99.90;;;;;;5132196;27;20227;-55
2022/01/26 09:59:48;;;;;;;68.00;32.83;;;2.60;99.90;;;;;;5121159;27;20261;-55
2022/01/26 10:02:24;;;;;;;68.40;31.77;;;2.60;99.90;;;;;;5111525;28;20266;-56
2022/01/26 10:05:01;;;;;;;63.43;33.40;;;2.60;99.90;;;;;;5119260;27;20637;-55
2022/01/26 10:07:43;;;;;;;60.40;31.70;;;2.60;99.90;;;;;;5114983;27;20209;-54
2022/01/26 10:16:19;;;;;;;63.53;32.27;;;2.70;99.90;;;;;;5072299;28;20236;-55
2022/01/26 10:18:55;;;;;;;71.03;34.10;;;2.70;99.90;;;;;;5099491;28;20233;-55
2022/01/26 10:21:23;;;;;;;73.23;41.43;;;2.70;99.90;;;;;;5130994;27;20218;-56
2022/01/26 10:23:53;;;;;;;75.07;38.97;;;2.70;99.90;;;;;;5132180;27;20239;-55
2022/01/26 10:26:21;;;;;;;77.43;44.80;;;2.80;99.90;;;;;;5136029;27;20581;-54
2022/01/26 10:28:52;;;;;;;66.53;34.27;;;2.80;99.90;;;;;;5138086;27;20740;-56
2022/01/26 10:31:21;;;;;;;70.47;35.03;;;2.80;99.90;;;;;;5136130;27;20258;-55
2022/01/26 10:34:10;;;;;;;143.07;66.00;;;2.80;99.90;;;;;;5135562;27;20191;-55
2022/01/26 10:36:40;;;;;;;67.20;34.83;;;2.80;99.90;;;;;;5135454;27;20203;-54
2022/01/26 10:39:11;;;;;;;73.90;41.60;;;2.80;99.90;;;;;;5135845;27;20222;-54
2022/01/26 10:41:40;;;;;;;79.03;39.90;;;2.80;99.90;;;;;;5135516;27;20265;-55
2022/01/26 10:44:08;;;;;;;76.90;40.40;;;2.80;99.90;;;;;;5135617;27;20210;-54
2022/01/26 10:46:40;;;;;;;75.77;36.13;;;2.80;99.90;;;;;;5129568;27;20677;-55
2022/01/26 10:49:17;;;;;;;65.00;35.97;;;2.80;99.90;;;;;;5114775;28;20572;-54
2022/01/26 10:52:00;;;;;;;73.73;38.17;;;2.80;99.90;;;;;;5129228;27;20226;-56
2022/01/26 10:54:38;;;;;;;85.43;43.73;;;2.80;99.90;;;;;;5135249;27;20213;-55
2022/01/26 10:57:08;;;;;;;74.83;39.20;;;2.80;99.90;;;;;;5135774;27;20244;-55
2022/01/26 10:59:38;;;;;;;80.27;42.53;;;2.90;99.90;;;;;;5133800;27;20222;-55
2022/01/26 11:02:07;;;;;;;79.77;37.87;;;2.90;99.90;;;;;;5135279;27;20711;-54
2022/01/26 11:04:38;;;;;;;89.53;45.40;;;3.00;99.90;;;;;;5135382;27;20216;-55
2022/01/26 11:07:11;;;;;;;82.80;40.77;;;2.90;99.90;;;;;;5135006;27;20218;-54
2022/01/26 11:09:42;;;;;;;86.50;43.13;;;3.00;99.90;;;;;;5118341;27;20229;-54
2022/01/26 11:12:13;;;;;;;87.40;45.33;;;3.00;99.90;;;;;;5149378;27;20252;-54
2022/01/26 11:14:44;;;;;;;100.00;52.70;;;3.10;99.90;;;;;;5156204;27;20209;-53
2022/01/26 11:17:27;;;;;;;108.07;59.60;;;3.10;99.90;;;;;;5117987;27;20209;-54
2022/01/26 11:19:57;;;;;;;100.83;47.17;;;3.20;99.90;;;;;;5114321;28;20641;-55
2022/01/26 11:22:29;;;;;;;110.23;56.90;;;3.30;99.90;;;;;;5113972;28;20224;-55
2022/01/26 11:25:10;;;;;;;104.30;50.97;;;3.30;99.90;;;;;;5113868;28;20243;-55
2022/01/26 11:27:40;;;;;;;100.23;49.53;;;3.20;99.90;;;;;;5117316;27;20269;-54
2022/01/26 11:30:17;;;;;;;96.17;44.53;;;3.20;99.90;;;;;;5113744;28;20227;-55
2022/01/26 11:32:57;;;;;;;96.00;46.00;;;3.30;99.90;;;;;;5113115;28;20223;-54
2022/01/26 11:35:31;;;;;;;102.80;44.73;;;3.40;99.90;;;;;;5119969;27;20608;-55
2022/01/26 11:38:06;;;;;;;106.70;46.40;;;3.40;99.90;;;;;;5118964;27;20205;-55
2022/01/26 11:46:25;;;;;;;123.00;46.27;;;3.20;99.90;;;;;;5116818;27;20228;-55
2022/01/26 11:49:05;;;;;;;167.03;89.33;;;3.20;99.90;;;;;;5134491;27;20238;-55
2022/01/26 11:51:46;;;;;;;165.70;73.83;;;3.20;99.90;;;;;;5133796;27;20223;-55
2022/01/26 11:54:16;;;;;;;208.93;118.57;;;3.20;99.90;;;;;;5152200;27;20551;-55
2022/01/26 11:56:55;;;;;;;134.87;54.93;;;3.10;99.90;;;;;;5151092;27;20672;-54
2022/01/26 11:59:26;;;;;;;139.10;61.63;;;3.10;99.90;;;;;;5120823;27;20221;-55
2022/01/26 12:01:59;;;;;;;132.73;51.30;;;3.10;99.90;;;;;;5133255;27;20272;-55
2022/01/26 12:04:32;;;;;;;129.57;60.43;;;3.20;99.90;;;;;;5134392;27;20231;-55
2022/01/26 12:07:11;;;;;;;121.40;47.50;;;3.20;99.90;;;;;;5136174;27;20227;-55
2022/01/26 12:09:41;;;;;;;121.00;49.10;;;3.20;99.90;;;;;;5150489;27;20217;-55
2022/01/26 12:12:17;;;;;;;115.63;46.30;;;3.20;99.90;;;;;;5114189;27;20225;-55
2022/01/26 12:15:00;;;;;;;113.93;48.50;;;3.20;99.90;;;;;;5123960;27;20211;-55
2022/01/26 12:17:33;;;;;;;113.83;44.40;;;3.30;99.90;;;;;;5116492;27;20276;-55
2022/01/26 12:34:39;;;;;;;115.03;49.83;;;3.50;99.90;;;;;;5128294;27;20210;-55
2022/01/26 12:37:14;;;;;;;112.47;45.23;;;3.60;99.90;;;;;;5112830;28;20207;-54
2022/01/26 12:42:53;;;;;;;107.53;42.87;;;3.70;99.90;;;;;;5133427;27;20279;-55
2022/01/26 12:45:41;;;;;;;103.27;43.77;;;3.70;99.90;;;;;;5133519;27;20217;-56
2022/01/26 12:48:10;;;;;;;109.93;43.63;;;3.60;99.90;;;;;;5132135;27;20204;-55
2022/01/26 12:50:41;;;;;;;107.13;43.53;;;3.60;99.90;;;;;;5133645;27;20200;-54
2022/01/26 12:53:09;;;;;;;114.00;46.07;;;3.60;99.90;;;;;;5129857;27;20223;-55
2022/01/26 12:55:39;;;;;;;107.93;45.30;;;3.70;99.90;;;;;;5132465;27;20243;-57
2022/01/26 12:58:08;;;;;;;111.23;45.70;;;3.70;99.90;;;;;;5133413;27;20255;-54
2022/01/26 13:00:41;;;;;;;118.33;46.30;;;3.70;99.90;;;;;;5120678;27;20677;-55
2022/01/26 13:03:14;;;;;;;114.93;45.57;;;3.70;99.90;;;;;;5135238;27;20712;-56
2022/01/26 13:05:43;;;;;;;117.83;44.83;;;3.70;99.90;;;;;;5153824;27;20203;-55
2022/01/26 13:08:12;;;;;;;115.07;45.20;;;3.60;99.90;;;;;;5132306;27;20214;-55
2022/01/26 13:10:42;;;;;;;109.63;42.53;;;3.60;99.90;;;;;;5146096;27;20191;-55
2022/01/26 13:13:15;;;;;;;104.70;42.63;;;3.60;99.90;;;;;;5134996;27;20604;-55
2022/01/26 13:15:50;;;;;;;111.17;46.80;;;3.70;99.90;;;;;;5112145;28;20202;-54
2022/01/26 13:18:31;;;;;;;109.13;43.27;;;3.70;99.90;;;;;;5124613;27;20246;-55
2022/01/26 13:21:20;;;;;;;107.03;42.80;;;3.70;99.90;;;;;;5132341;27;20237;-55
2022/01/26 13:24:01;;;;;;;109.83;44.97;;;3.60;99.90;;;;;;5132629;27;20242;-55
2022/01/26 13:26:38;;;;;;;108.77;43.43;;;3.60;99.90;;;;;;5132285;27;20243;-53
2022/01/26 13:29:20;;;;;;;114.97;43.83;;;3.60;99.90;;;;;;5113648;27;20265;-55
2022/01/26 13:38:14;;;;;;;113.20;44.13;;;3.60;99.90;;;;;;5068611;28;20212;-55
2022/01/26 13:40:51;;;;;;;109.10;41.80;;;3.70;99.90;;;;;;5107543;28;20263;-54
2022/01/26 13:49:44;;;;;;;114.67;45.57;;;3.70;99.90;;;;;;5026074;28;20252;-55
2022/01/26 13:52:29;;;;;;;113.63;43.57;;;3.70;99.90;;;;;;5086006;28;20275;-55
2022/01/26 13:58:04;;;;;;;115.80;43.80;;;3.70;99.90;;;;;;5084437;28;20205;-56
2022/01/26 14:00:38;;;;;;;110.93;44.53;;;3.60;99.90;;;;;;5087211;28;20232;-53
2022/01/26 14:03:11;;;;;;;109.07;43.77;;;3.60;99.90;;;;;;5087690;28;20226;-54
2022/01/26 14:05:39;;;;;;;105.97;42.20;;;3.50;99.90;;;;;;5076452;28;20230;-55
2022/01/26 14:08:07;;;;;;;105.77;42.47;;;3.50;99.90;;;;;;5067395;28;20301;-56
2022/01/26 14:10:36;;;;;;;96.63;39.40;;;3.60;99.90;;;;;;5078647;28;20228;-55
2022/01/26 14:13:05;;;;;;;100.43;41.50;;;3.70;99.90;;;;;;5086645;28;20643;-54
2022/01/26 14:15:41;;;;;;;99.23;42.03;;;3.70;99.90;;;;;;5086918;28;20218;-55
2022/01/26 14:18:38;;;;;;;107.20;40.97;;;3.80;99.90;;;;;;5087865;28;20638;-55
2022/01/26 14:21:22;;;;;;;100.40;41.40;;;3.70;99.90;;;;;;5082749;28;20283;-54
2022/01/26 14:24:25;;;;;;;111.10;43.90;;;3.70;99.90;;;;;;5086556;28;20205;-55
2022/01/26 14:26:57;;;;;;;104.33;42.07;;;3.70;99.90;;;;;;5087281;28;20236;-55
2022/01/26 14:29:37;;;;;;;91.27;38.37;;;3.70;99.90;;;;;;5086741;28;20201;-55
2022/01/26 14:32:22;;;;;;;96.30;40.13;;;3.70;99.90;;;;;;5087285;28;20643;-55
2022/01/26 14:35:20;;;;;;;99.17;40.37;;;3.70;99.90;;;;;;5084975;28;20255;-55
2022/01/26 14:40:51;;;;;;;92.87;37.50;;;3.70;99.90;;;;;;5085516;28;20217;-54
2022/01/26 14:54:59;;;;;;;101.00;41.10;;;3.70;99.90;;;;;;5066290;28;20570;-54
2022/01/26 15:08:49;;;;;;;100.30;39.50;;;3.60;99.90;;;;;;5073407;28;20222;-55
2022/01/26 15:34:45;;;;;;;85.30;36.77;;;3.60;99.90;;;;;;5030942;28;20218;-55